sensor_id;sensor_type;location;lat;lon;timestamp;pressure;altitude;pressure_sealevel;temperature;humidity
28004;BME280;15330;51.234;6.754;2023-04-20T00:01:36;101545.31;;;8.70;46.83
28004;BME280;15330;51.234;6.754;2023-04-20T00:04:01;101545.25;;;8.91;47.18
28004;BME280;15330;51.234;6.754;2023-04-20T00:06:27;101542.06;;;8.66;47.21
28004;BME280;15330;51.234;6.754;2023-04-20T00:08:57;101544.97;;;8.63;47.61
28004;BME280;15330;51.234;6.754;2023-04-20T00:11:22;101542.78;;;8.68;47.35
28004;BME280;15330;51.234;6.754;2023-04-20T00:13:48;101538.75;;;8.83;46.55
28004;BME280;15330;51.234;6.754;2023-04-20T00:16:13;101533.69;;;8.80;46.87
28004;BME280;15330;51.234;6.754;2023-04-20T00:18:39;101536.34;;;8.71;46.79
28004;BME280;15330;51.234;6.754;2023-04-20T00:21:04;101526.75;;;8.68;46.94
28004;BME280;15330;51.234;6.754;2023-04-20T00:23:30;101529.09;;;8.62;46.85
28004;BME280;15330;51.234;6.754;2023-04-20T00:25:55;101511.75;;;8.67;46.80
28004;BME280;15330;51.234;6.754;2023-04-20T00:28:21;101510.22;;;8.44;46.89
28004;BME280;15330;51.234;6.754;2023-04-20T00:30:46;101506.56;;;8.45;46.28
28004;BME280;15330;51.234;6.754;2023-04-20T00:33:11;101497.06;;;8.52;47.07
28004;BME280;15330;51.234;6.754;2023-04-20T00:35:37;101503.94;;;8.55;46.86
28004;BME280;15330;51.234;6.754;2023-04-20T00:38:02;101499.53;;;8.44;46.63
28004;BME280;15330;51.234;6.754;2023-04-20T00:40:27;101496.00;;;8.34;46.75
28004;BME280;15330;51.234;6.754;2023-04-20T00:42:53;101489.81;;;8.33;46.58
28004;BME280;15330;51.234;6.754;2023-04-20T00:45:18;101488.38;;;8.50;46.35
28004;BME280;15330;51.234;6.754;2023-04-20T00:47:46;101482.31;;;8.48;46.40
28004;BME280;15330;51.234;6.754;2023-04-20T00:50:11;101476.59;;;8.32;46.21
28004;BME280;15330;51.234;6.754;2023-04-20T00:52:37;101472.03;;;8.23;46.59
28004;BME280;15330;51.234;6.754;2023-04-20T00:55:02;101462.72;;;8.59;46.62
28004;BME280;15330;51.234;6.754;2023-04-20T00:57:29;101457.78;;;8.54;45.98
28004;BME280;15330;51.234;6.754;2023-04-20T00:59:55;101466.84;;;8.42;46.35
28004;BME280;15330;51.234;6.754;2023-04-20T01:02:20;101463.28;;;8.62;46.73
28004;BME280;15330;51.234;6.754;2023-04-20T01:04:46;101460.47;;;8.64;45.83
28004;BME280;15330;51.234;6.754;2023-04-20T01:07:12;101468.34;;;8.35;46.02
28004;BME280;15330;51.234;6.754;2023-04-20T01:09:37;101463.50;;;8.19;46.63
28004;BME280;15330;51.234;6.754;2023-04-20T01:12:08;101453.34;;;8.13;46.49
28004;BME280;15330;51.234;6.754;2023-04-20T01:14:34;101448.66;;;8.05;46.50
28004;BME280;15330;51.234;6.754;2023-04-20T01:16:59;101448.06;;;8.23;46.80
28004;BME280;15330;51.234;6.754;2023-04-20T01:19:24;101452.31;;;8.04;46.98
28004;BME280;15330;51.234;6.754;2023-04-20T01:21:50;101444.25;;;8.16;46.58
28004;BME280;15330;51.234;6.754;2023-04-20T01:24:16;101432.22;;;8.00;47.63
28004;BME280;15330;51.234;6.754;2023-04-20T01:26:41;101434.16;;;8.19;47.20
28004;BME280;15330;51.234;6.754;2023-04-20T01:29:06;101420.50;;;8.33;46.92
28004;BME280;15330;51.234;6.754;2023-04-20T01:31:32;101428.41;;;8.44;47.88
28004;BME280;15330;51.234;6.754;2023-04-20T01:33:57;101423.16;;;8.33;48.29
28004;BME280;15330;51.234;6.754;2023-04-20T01:36:23;101427.53;;;8.14;48.56
28004;BME280;15330;51.234;6.754;2023-04-20T01:38:48;101430.31;;;8.12;48.87
28004;BME280;15330;51.234;6.754;2023-04-20T01:41:14;101429.97;;;7.96;49.58
28004;BME280;15330;51.234;6.754;2023-04-20T01:43:39;101435.69;;;7.91;49.18
28004;BME280;15330;51.234;6.754;2023-04-20T01:46:05;101436.84;;;7.98;49.82
28004;BME280;15330;51.234;6.754;2023-04-20T01:48:31;101426.97;;;7.68;49.47
28004;BME280;15330;51.234;6.754;2023-04-20T01:50:57;101427.06;;;7.57;49.36
28004;BME280;15330;51.234;6.754;2023-04-20T01:53:22;101419.81;;;7.48;49.77
28004;BME280;15330;51.234;6.754;2023-04-20T01:55:50;101426.22;;;7.57;49.38
28004;BME280;15330;51.234;6.754;2023-04-20T01:58:15;101418.22;;;7.57;49.30
28004;BME280;15330;51.234;6.754;2023-04-20T02:00:40;101409.91;;;7.71;49.58
28004;BME280;15330;51.234;6.754;2023-04-20T02:03:06;101411.25;;;7.86;49.29
28004;BME280;15330;51.234;6.754;2023-04-20T02:05:31;101407.56;;;7.57;48.99
28004;BME280;15330;51.234;6.754;2023-04-20T02:07:57;101404.44;;;7.72;49.33
28004;BME280;15330;51.234;6.754;2023-04-20T02:10:22;101397.75;;;7.78;49.40
28004;BME280;15330;51.234;6.754;2023-04-20T02:12:48;101395.03;;;8.20;49.61
28004;BME280;15330;51.234;6.754;2023-04-20T02:15:14;101379.19;;;8.18;48.71
28004;BME280;15330;51.234;6.754;2023-04-20T02:17:39;101389.22;;;8.35;49.07
28004;BME280;15330;51.234;6.754;2023-04-20T02:20:07;101386.19;;;8.19;49.32
28004;BME280;15330;51.234;6.754;2023-04-20T02:22:33;101383.28;;;8.01;49.36
28004;BME280;15330;51.234;6.754;2023-04-20T02:25:03;101386.69;;;8.34;49.28
28004;BME280;15330;51.234;6.754;2023-04-20T02:27:30;101370.25;;;8.29;48.40
28004;BME280;15330;51.234;6.754;2023-04-20T02:29:56;101362.72;;;8.34;48.81
28004;BME280;15330;51.234;6.754;2023-04-20T02:32:21;101355.06;;;8.50;48.99
28004;BME280;15330;51.234;6.754;2023-04-20T02:34:47;101359.09;;;8.44;48.84
28004;BME280;15330;51.234;6.754;2023-04-20T02:37:12;101358.25;;;8.44;48.76
28004;BME280;15330;51.234;6.754;2023-04-20T02:39:38;101357.00;;;8.48;48.22
28004;BME280;15330;51.234;6.754;2023-04-20T02:42:04;101355.16;;;8.39;49.00
28004;BME280;15330;51.234;6.754;2023-04-20T02:44:29;101343.34;;;8.41;49.15
28004;BME280;15330;51.234;6.754;2023-04-20T02:46:55;101343.09;;;8.44;48.74
28004;BME280;15330;51.234;6.754;2023-04-20T02:49:20;101342.00;;;8.47;49.29
28004;BME280;15330;51.234;6.754;2023-04-20T02:51:45;101340.91;;;8.69;49.53
28004;BME280;15330;51.234;6.754;2023-04-20T02:54:11;101342.59;;;8.60;49.66
28004;BME280;15330;51.234;6.754;2023-04-20T02:56:36;101347.81;;;8.31;50.18
28004;BME280;15330;51.234;6.754;2023-04-20T02:59:02;101337.47;;;8.38;50.63
28004;BME280;15330;51.234;6.754;2023-04-20T03:01:27;101329.38;;;8.59;50.34
28004;BME280;15330;51.234;6.754;2023-04-20T03:03:53;101321.06;;;8.42;50.87
28004;BME280;15330;51.234;6.754;2023-04-20T03:06:18;101317.56;;;8.52;50.47
28004;BME280;15330;51.234;6.754;2023-04-20T03:08:43;101317.16;;;8.56;50.49
28004;BME280;15330;51.234;6.754;2023-04-20T03:11:09;101318.16;;;8.65;51.75
28004;BME280;15330;51.234;6.754;2023-04-20T03:13:34;101309.53;;;8.42;51.67
28004;BME280;15330;51.234;6.754;2023-04-20T03:16:00;101310.84;;;8.48;51.49
28004;BME280;15330;51.234;6.754;2023-04-20T03:18:25;101317.00;;;8.48;51.57
28004;BME280;15330;51.234;6.754;2023-04-20T03:20:51;101322.00;;;8.01;52.43
28004;BME280;15330;51.234;6.754;2023-04-20T03:23:16;101324.97;;;7.98;52.89
28004;BME280;15330;51.234;6.754;2023-04-20T03:25:42;101317.09;;;7.97;53.22
28004;BME280;15330;51.234;6.754;2023-04-20T03:28:07;101310.81;;;7.98;53.11
28004;BME280;15330;51.234;6.754;2023-04-20T03:30:33;101319.09;;;8.04;53.46
28004;BME280;15330;51.234;6.754;2023-04-20T03:32:58;101314.59;;;8.05;54.34
28004;BME280;15330;51.234;6.754;2023-04-20T03:35:23;101310.19;;;7.85;54.69
28004;BME280;15330;51.234;6.754;2023-04-20T03:37:49;101311.22;;;8.03;54.51
28004;BME280;15330;51.234;6.754;2023-04-20T03:40:14;101308.44;;;8.04;54.21
28004;BME280;15330;51.234;6.754;2023-04-20T03:42:40;101301.09;;;7.87;54.44
28004;BME280;15330;51.234;6.754;2023-04-20T03:45:06;101292.69;;;7.92;54.46
28004;BME280;15330;51.234;6.754;2023-04-20T03:47:31;101292.38;;;8.25;54.82
28004;BME280;15330;51.234;6.754;2023-04-20T03:49:57;101297.00;;;7.83;54.94
28004;BME280;15330;51.234;6.754;2023-04-20T03:52:22;101288.91;;;7.94;55.39
28004;BME280;15330;51.234;6.754;2023-04-20T03:54:48;101293.09;;;7.87;55.76
28004;BME280;15330;51.234;6.754;2023-04-20T03:57:13;101286.66;;;7.99;54.81
28004;BME280;15330;51.234;6.754;2023-04-20T03:59:38;101294.28;;;8.04;55.29
28004;BME280;15330;51.234;6.754;2023-04-20T04:02:04;101282.78;;;8.13;55.25
28004;BME280;15330;51.234;6.754;2023-04-20T04:04:30;101278.91;;;8.17;55.19
28004;BME280;15330;51.234;6.754;2023-04-20T04:06:55;101284.09;;;8.28;54.81
28004;BME280;15330;51.234;6.754;2023-04-20T04:09:20;101279.19;;;8.24;55.05
28004;BME280;15330;51.234;6.754;2023-04-20T04:11:46;101278.75;;;8.09;54.80
28004;BME280;15330;51.234;6.754;2023-04-20T04:14:12;101279.16;;;7.74;55.45
28004;BME280;15330;51.234;6.754;2023-04-20T04:16:37;101270.88;;;8.07;55.25
28004;BME280;15330;51.234;6.754;2023-04-20T04:19:03;101271.75;;;8.27;55.92
28004;BME280;15330;51.234;6.754;2023-04-20T04:21:28;101274.03;;;8.41;55.96
28004;BME280;15330;51.234;6.754;2023-04-20T04:23:53;101266.78;;;8.72;55.11
28004;BME280;15330;51.234;6.754;2023-04-20T04:26:19;101264.81;;;8.84;54.67
28004;BME280;15330;51.234;6.754;2023-04-20T04:28:49;101260.06;;;8.88;54.02
28004;BME280;15330;51.234;6.754;2023-04-20T04:31:17;101258.38;;;8.48;55.32
28004;BME280;15330;51.234;6.754;2023-04-20T04:33:44;101266.03;;;8.32;56.12
28004;BME280;15330;51.234;6.754;2023-04-20T04:36:11;101268.44;;;8.35;55.82
28004;BME280;15330;51.234;6.754;2023-04-20T04:38:36;101265.31;;;7.90;58.66
28004;BME280;15330;51.234;6.754;2023-04-20T04:41:02;101260.25;;;8.17;58.76
28004;BME280;15330;51.234;6.754;2023-04-20T04:43:28;101260.53;;;8.24;58.36
28004;BME280;15330;51.234;6.754;2023-04-20T04:45:53;101261.63;;;7.71;61.84
28004;BME280;15330;51.234;6.754;2023-04-20T04:48:19;101258.03;;;7.92;60.28
28004;BME280;15330;51.234;6.754;2023-04-20T04:50:45;101259.25;;;8.08;59.94
28004;BME280;15330;51.234;6.754;2023-04-20T04:53:10;101255.41;;;7.61;62.45
28004;BME280;15330;51.234;6.754;2023-04-20T04:55:36;101256.97;;;7.64;63.52
28004;BME280;15330;51.234;6.754;2023-04-20T04:58:01;101252.81;;;7.81;64.63
28004;BME280;15330;51.234;6.754;2023-04-20T05:00:27;101254.66;;;8.30;66.23
28004;BME280;15330;51.234;6.754;2023-04-20T05:02:53;101253.66;;;8.31;66.73
28004;BME280;15330;51.234;6.754;2023-04-20T05:05:19;101260.31;;;8.46;66.69
28004;BME280;15330;51.234;6.754;2023-04-20T05:07:44;101261.72;;;8.40;67.08
28004;BME280;15330;51.234;6.754;2023-04-20T05:10:10;101257.69;;;8.06;70.13
28004;BME280;15330;51.234;6.754;2023-04-20T05:12:36;101254.91;;;8.17;70.77
28004;BME280;15330;51.234;6.754;2023-04-20T05:15:01;101259.56;;;7.85;72.01
28004;BME280;15330;51.234;6.754;2023-04-20T05:17:27;101261.16;;;7.97;72.25
28004;BME280;15330;51.234;6.754;2023-04-20T05:19:52;101253.66;;;7.81;72.92
28004;BME280;15330;51.234;6.754;2023-04-20T05:22:17;101252.44;;;7.85;73.53
28004;BME280;15330;51.234;6.754;2023-04-20T05:24:43;101257.94;;;8.03;73.78
28004;BME280;15330;51.234;6.754;2023-04-20T05:27:08;101266.88;;;7.92;73.50
28004;BME280;15330;51.234;6.754;2023-04-20T05:29:35;101267.59;;;7.94;74.17
28004;BME280;15330;51.234;6.754;2023-04-20T05:32:01;101271.50;;;7.90;74.47
28004;BME280;15330;51.234;6.754;2023-04-20T05:34:26;101273.19;;;7.91;74.54
28004;BME280;15330;51.234;6.754;2023-04-20T05:36:51;101278.94;;;7.87;74.99
28004;BME280;15330;51.234;6.754;2023-04-20T05:39:19;101264.41;;;8.10;74.38
28004;BME280;15330;51.234;6.754;2023-04-20T05:41:45;101265.75;;;7.85;75.30
28004;BME280;15330;51.234;6.754;2023-04-20T05:44:11;101270.63;;;7.80;76.94
28004;BME280;15330;51.234;6.754;2023-04-20T05:46:36;101266.09;;;8.11;75.10
28004;BME280;15330;51.234;6.754;2023-04-20T05:49:02;101266.13;;;8.21;74.81
28004;BME280;15330;51.234;6.754;2023-04-20T05:51:27;101265.28;;;8.20;76.45
28004;BME280;15330;51.234;6.754;2023-04-20T05:53:57;101261.44;;;8.43;74.90
28004;BME280;15330;51.234;6.754;2023-04-20T05:56:23;101263.44;;;8.51;77.83
28004;BME280;15330;51.234;6.754;2023-04-20T05:58:49;101261.47;;;8.92;74.39
28004;BME280;15330;51.234;6.754;2023-04-20T06:01:14;101268.38;;;8.25;74.62
28004;BME280;15330;51.234;6.754;2023-04-20T06:03:40;101269.16;;;8.56;76.15
28004;BME280;15330;51.234;6.754;2023-04-20T06:06:05;101265.38;;;8.39;74.17
28004;BME280;15330;51.234;6.754;2023-04-20T06:08:31;101262.22;;;8.25;75.10
28004;BME280;15330;51.234;6.754;2023-04-20T06:10:56;101256.88;;;8.25;74.24
28004;BME280;15330;51.234;6.754;2023-04-20T06:13:22;101259.50;;;8.05;75.37
28004;BME280;15330;51.234;6.754;2023-04-20T06:15:48;101257.19;;;7.91;75.02
28004;BME280;15330;51.234;6.754;2023-04-20T06:18:14;101258.34;;;7.89;75.69
28004;BME280;15330;51.234;6.754;2023-04-20T06:20:39;101257.66;;;7.96;75.88
28004;BME280;15330;51.234;6.754;2023-04-20T06:23:04;101261.94;;;8.18;74.72
28004;BME280;15330;51.234;6.754;2023-04-20T06:25:30;101252.84;;;7.90;75.91
28004;BME280;15330;51.234;6.754;2023-04-20T06:27:55;101258.59;;;7.86;76.31
28004;BME280;15330;51.234;6.754;2023-04-20T06:30:21;101253.34;;;7.65;76.45
28004;BME280;15330;51.234;6.754;2023-04-20T06:32:46;101257.09;;;8.02;75.84
28004;BME280;15330;51.234;6.754;2023-04-20T06:35:12;101252.72;;;7.92;76.23
28004;BME280;15330;51.234;6.754;2023-04-20T06:37:37;101250.78;;;8.03;75.96
28004;BME280;15330;51.234;6.754;2023-04-20T06:40:05;101250.91;;;7.92;76.50
28004;BME280;15330;51.234;6.754;2023-04-20T06:42:34;101248.25;;;7.92;76.54
28004;BME280;15330;51.234;6.754;2023-04-20T06:44:59;101247.78;;;7.78;77.37
28004;BME280;15330;51.234;6.754;2023-04-20T06:47:25;101255.13;;;7.95;77.56
28004;BME280;15330;51.234;6.754;2023-04-20T06:49:59;101249.06;;;7.83;77.41
28004;BME280;15330;51.234;6.754;2023-04-20T06:52:26;101259.06;;;7.40;79.95
28004;BME280;15330;51.234;6.754;2023-04-20T06:54:52;101255.84;;;7.36;80.54
28004;BME280;15330;51.234;6.754;2023-04-20T06:57:17;101263.00;;;7.35;81.06
28004;BME280;15330;51.234;6.754;2023-04-20T06:59:43;101259.75;;;7.62;80.09
28004;BME280;15330;51.234;6.754;2023-04-20T07:02:08;101263.22;;;7.53;80.99
28004;BME280;15330;51.234;6.754;2023-04-20T07:04:34;101256.38;;;7.60;81.77
28004;BME280;15330;51.234;6.754;2023-04-20T07:06:59;101256.88;;;7.45;82.24
28004;BME280;15330;51.234;6.754;2023-04-20T07:09:25;101258.31;;;7.07;84.00
28004;BME280;15330;51.234;6.754;2023-04-20T07:11:51;101263.31;;;7.42;83.74
28004;BME280;15330;51.234;6.754;2023-04-20T07:14:16;101255.97;;;7.34;83.96
28004;BME280;15330;51.234;6.754;2023-04-20T07:16:42;101260.03;;;7.38;84.04
28004;BME280;15330;51.234;6.754;2023-04-20T07:19:07;101254.28;;;7.33;84.49
28004;BME280;15330;51.234;6.754;2023-04-20T07:21:32;101252.72;;;7.31;84.98
28004;BME280;15330;51.234;6.754;2023-04-20T07:23:58;101252.81;;;7.20;85.74
28004;BME280;15330;51.234;6.754;2023-04-20T07:26:24;101257.47;;;7.07;86.74
28004;BME280;15330;51.234;6.754;2023-04-20T07:28:50;101249.91;;;7.02;87.37
28004;BME280;15330;51.234;6.754;2023-04-20T07:31:16;101254.56;;;6.89;87.95
28004;BME280;15330;51.234;6.754;2023-04-20T07:33:42;101251.75;;;6.90;88.03
28004;BME280;15330;51.234;6.754;2023-04-20T07:36:08;101249.88;;;7.23;86.33
28004;BME280;15330;51.234;6.754;2023-04-20T07:38:33;101252.75;;;7.10;88.13
28004;BME280;15330;51.234;6.754;2023-04-20T07:40:59;101250.91;;;7.31;86.85
28004;BME280;15330;51.234;6.754;2023-04-20T07:43:24;101254.28;;;7.33;86.13
28004;BME280;15330;51.234;6.754;2023-04-20T07:45:49;101258.56;;;7.46;86.06
28004;BME280;15330;51.234;6.754;2023-04-20T07:48:15;101259.75;;;7.32;86.59
28004;BME280;15330;51.234;6.754;2023-04-20T07:50:40;101269.00;;;7.37;87.04
28004;BME280;15330;51.234;6.754;2023-04-20T07:53:06;101264.09;;;7.33;86.83
28004;BME280;15330;51.234;6.754;2023-04-20T07:55:31;101262.75;;;7.48;85.45
28004;BME280;15330;51.234;6.754;2023-04-20T07:57:56;101268.88;;;7.18;86.67
28004;BME280;15330;51.234;6.754;2023-04-20T08:00:23;101264.69;;;7.36;86.18
28004;BME280;15330;51.234;6.754;2023-04-20T08:02:48;101261.34;;;7.44;86.44
28004;BME280;15330;51.234;6.754;2023-04-20T08:05:13;101258.44;;;7.78;85.27
28004;BME280;15330;51.234;6.754;2023-04-20T08:07:39;101252.03;;;7.59;85.34
28004;BME280;15330;51.234;6.754;2023-04-20T08:10:06;101254.38;;;7.83;84.39
28004;BME280;15330;51.234;6.754;2023-04-20T08:12:32;101252.19;;;7.58;85.55
28004;BME280;15330;51.234;6.754;2023-04-20T08:14:57;101248.75;;;7.46;86.19
28004;BME280;15330;51.234;6.754;2023-04-20T08:17:28;101246.09;;;7.77;85.25
28004;BME280;15330;51.234;6.754;2023-04-20T08:19:53;101234.66;;;7.55;85.70
28004;BME280;15330;51.234;6.754;2023-04-20T08:22:19;101245.31;;;7.55;85.87
28004;BME280;15330;51.234;6.754;2023-04-20T08:24:45;101232.50;;;7.49;86.70
28004;BME280;15330;51.234;6.754;2023-04-20T08:27:11;101239.03;;;7.66;85.69
28004;BME280;15330;51.234;6.754;2023-04-20T08:29:38;101232.41;;;7.60;85.20
28004;BME280;15330;51.234;6.754;2023-04-20T08:32:03;101235.63;;;7.54;85.60
28004;BME280;15330;51.234;6.754;2023-04-20T08:34:29;101224.84;;;7.56;85.42
28004;BME280;15330;51.234;6.754;2023-04-20T08:36:54;101228.44;;;7.76;84.36
28004;BME280;15330;51.234;6.754;2023-04-20T08:39:20;101225.44;;;7.69;84.90
28004;BME280;15330;51.234;6.754;2023-04-20T08:41:48;101231.19;;;7.64;85.32
28004;BME280;15330;51.234;6.754;2023-04-20T08:44:18;101236.94;;;7.69;84.50
28004;BME280;15330;51.234;6.754;2023-04-20T08:46:45;101234.25;;;7.60;85.12
28004;BME280;15330;51.234;6.754;2023-04-20T08:49:13;101220.72;;;7.82;84.77
28004;BME280;15330;51.234;6.754;2023-04-20T08:51:40;101224.44;;;7.60;85.39
28004;BME280;15330;51.234;6.754;2023-04-20T08:54:06;101228.53;;;7.64;85.74
28004;BME280;15330;51.234;6.754;2023-04-20T08:56:35;101226.75;;;7.44;86.70
28004;BME280;15330;51.234;6.754;2023-04-20T08:59:01;101225.66;;;7.47;86.55
28004;BME280;15330;51.234;6.754;2023-04-20T09:01:28;101225.50;;;7.79;86.08
28004;BME280;15330;51.234;6.754;2023-04-20T09:03:53;101232.88;;;7.65;86.76
28004;BME280;15330;51.234;6.754;2023-04-20T09:06:19;101223.94;;;7.76;85.34
28004;BME280;15330;51.234;6.754;2023-04-20T09:08:45;101215.97;;;7.76;86.02
28004;BME280;15330;51.234;6.754;2023-04-20T09:11:23;101214.53;;;7.72;86.13
28004;BME280;15330;51.234;6.754;2023-04-20T09:14:00;101222.91;;;7.58;86.06
28004;BME280;15330;51.234;6.754;2023-04-20T09:16:26;101219.03;;;7.81;88.37
28004;BME280;15330;51.234;6.754;2023-04-20T09:18:53;101227.22;;;7.59;89.64
28004;BME280;15330;51.234;6.754;2023-04-20T09:21:19;101229.72;;;7.51;92.33
28004;BME280;15330;51.234;6.754;2023-04-20T09:24:03;101237.63;;;7.62;92.34
28004;BME280;15330;51.234;6.754;2023-04-20T09:26:33;101232.38;;;7.51;94.28
28004;BME280;15330;51.234;6.754;2023-04-20T09:29:00;101231.56;;;7.29;95.37
28004;BME280;15330;51.234;6.754;2023-04-20T09:31:26;101226.22;;;7.90;94.04
28004;BME280;15330;51.234;6.754;2023-04-20T09:33:59;101229.91;;;7.99;93.58
28004;BME280;15330;51.234;6.754;2023-04-20T09:39:15;101226.38;;;8.38;91.31
28004;BME280;15330;51.234;6.754;2023-04-20T09:41:42;101228.59;;;8.33;89.76
28004;BME280;15330;51.234;6.754;2023-04-20T09:44:08;101222.16;;;8.55;87.99
28004;BME280;15330;51.234;6.754;2023-04-20T09:46:36;101216.09;;;8.34;89.04
28004;BME280;15330;51.234;6.754;2023-04-20T09:49:04;101212.28;;;8.94;85.68
28004;BME280;15330;51.234;6.754;2023-04-20T09:51:32;101202.00;;;9.18;83.92
28004;BME280;15330;51.234;6.754;2023-04-20T09:53:59;101207.13;;;9.39;82.82
28004;BME280;15330;51.234;6.754;2023-04-20T09:56:25;101210.78;;;8.92;83.93
28004;BME280;15330;51.234;6.754;2023-04-20T09:58:53;101204.66;;;9.55;81.53
28004;BME280;15330;51.234;6.754;2023-04-20T10:01:19;101202.13;;;9.17;82.34
28004;BME280;15330;51.234;6.754;2023-04-20T10:03:47;101196.44;;;9.39;81.46
28004;BME280;15330;51.234;6.754;2023-04-20T10:06:30;101197.16;;;10.23;79.65
28004;BME280;15330;51.234;6.754;2023-04-20T10:08:57;101194.94;;;10.72;75.03
28004;BME280;15330;51.234;6.754;2023-04-20T10:13:56;101187.53;;;9.85;78.02
28004;BME280;15330;51.234;6.754;2023-04-20T10:16:22;101169.91;;;10.10;76.00
28004;BME280;15330;51.234;6.754;2023-04-20T10:19:14;101163.38;;;9.77;77.66
28004;BME280;15330;51.234;6.754;2023-04-20T10:21:47;101170.91;;;10.09;75.43
28004;BME280;15330;51.234;6.754;2023-04-20T10:24:13;101157.06;;;10.23;74.79
28004;BME280;15330;51.234;6.754;2023-04-20T10:26:42;101167.94;;;10.12;73.93
28004;BME280;15330;51.234;6.754;2023-04-20T10:29:09;101171.81;;;10.89;72.65
28004;BME280;15330;51.234;6.754;2023-04-20T10:31:39;101158.63;;;10.52;71.11
28004;BME280;15330;51.234;6.754;2023-04-20T10:34:06;101160.53;;;10.77;71.50
28004;BME280;15330;51.234;6.754;2023-04-20T10:36:34;101163.56;;;9.93;72.81
28004;BME280;15330;51.234;6.754;2023-04-20T10:39:12;101163.56;;;9.93;73.54
28004;BME280;15330;51.234;6.754;2023-04-20T10:41:56;101154.16;;;10.35;72.74
28004;BME280;15330;51.234;6.754;2023-04-20T10:44:26;101177.47;;;10.24;70.65
28004;BME280;15330;51.234;6.754;2023-04-20T10:46:52;101168.78;;;10.13;68.89
28004;BME280;15330;51.234;6.754;2023-04-20T10:49:18;101164.91;;;9.80;70.20
28004;BME280;15330;51.234;6.754;2023-04-20T10:51:48;101161.91;;;10.10;70.95
28004;BME280;15330;51.234;6.754;2023-04-20T10:54:14;101157.31;;;9.85;74.14
28004;BME280;15330;51.234;6.754;2023-04-20T10:59:17;101158.13;;;10.30;72.91
28004;BME280;15330;51.234;6.754;2023-04-20T11:01:43;101152.75;;;10.66;70.71
28004;BME280;15330;51.234;6.754;2023-04-20T11:04:10;101144.91;;;10.47;73.17
28004;BME280;15330;51.234;6.754;2023-04-20T11:06:40;101144.81;;;10.39;71.69
28004;BME280;15330;51.234;6.754;2023-04-20T11:09:20;101141.31;;;10.38;71.74
28004;BME280;15330;51.234;6.754;2023-04-20T11:12:00;101132.06;;;11.62;68.08
28004;BME280;15330;51.234;6.754;2023-04-20T11:14:26;101124.00;;;12.28;64.32
28004;BME280;15330;51.234;6.754;2023-04-20T11:16:52;101130.41;;;12.35;64.22
28004;BME280;15330;51.234;6.754;2023-04-20T11:19:36;101118.16;;;11.66;65.22
28004;BME280;15330;51.234;6.754;2023-04-20T11:22:03;101121.13;;;11.21;63.54
28004;BME280;15330;51.234;6.754;2023-04-20T11:24:30;101110.66;;;11.36;61.37
28004;BME280;15330;51.234;6.754;2023-04-20T11:26:58;101110.13;;;11.74;63.51
28004;BME280;15330;51.234;6.754;2023-04-20T11:29:30;101117.66;;;11.21;66.03
28004;BME280;15330;51.234;6.754;2023-04-20T11:31:58;101121.06;;;10.36;68.91
28004;BME280;15330;51.234;6.754;2023-04-20T11:34:24;101118.78;;;10.23;70.02
28004;BME280;15330;51.234;6.754;2023-04-20T11:36:50;101113.94;;;10.09;68.86
28004;BME280;15330;51.234;6.754;2023-04-20T11:39:25;101115.84;;;9.99;70.08
28004;BME280;15330;51.234;6.754;2023-04-20T11:41:52;101114.97;;;10.25;69.93
28004;BME280;15330;51.234;6.754;2023-04-20T11:44:19;101120.88;;;10.02;70.57
28004;BME280;15330;51.234;6.754;2023-04-20T11:46:46;101124.31;;;9.94;71.48
28004;BME280;15330;51.234;6.754;2023-04-20T11:49:13;101118.69;;;10.33;71.33
28004;BME280;15330;51.234;6.754;2023-04-20T11:51:38;101125.91;;;9.87;72.53
28004;BME280;15330;51.234;6.754;2023-04-20T11:54:04;101120.81;;;10.11;72.26
28004;BME280;15330;51.234;6.754;2023-04-20T11:56:29;101119.75;;;10.04;72.78
28004;BME280;15330;51.234;6.754;2023-04-20T11:58:54;101117.66;;;10.25;72.03
28004;BME280;15330;51.234;6.754;2023-04-20T12:01:20;101116.41;;;10.20;70.20
28004;BME280;15330;51.234;6.754;2023-04-20T12:03:45;101119.66;;;10.14;69.66
28004;BME280;15330;51.234;6.754;2023-04-20T12:06:11;101123.00;;;9.98;67.93
28004;BME280;15330;51.234;6.754;2023-04-20T12:08:36;101118.94;;;9.76;68.52
28004;BME280;15330;51.234;6.754;2023-04-20T12:11:02;101120.88;;;9.84;67.52
28004;BME280;15330;51.234;6.754;2023-04-20T12:13:27;101120.59;;;10.58;66.36
28004;BME280;15330;51.234;6.754;2023-04-20T12:15:52;101120.66;;;10.66;65.22
28004;BME280;15330;51.234;6.754;2023-04-20T12:18:18;101116.19;;;10.31;65.88
28004;BME280;15330;51.234;6.754;2023-04-20T12:20:43;101118.53;;;10.52;67.12
28004;BME280;15330;51.234;6.754;2023-04-20T12:23:11;101117.84;;;10.14;67.07
28004;BME280;15330;51.234;6.754;2023-04-20T12:25:36;101109.97;;;10.13;67.03
28004;BME280;15330;51.234;6.754;2023-04-20T12:28:02;101110.13;;;9.93;66.99
28004;BME280;15330;51.234;6.754;2023-04-20T12:30:31;101112.19;;;10.17;66.40
28004;BME280;15330;51.234;6.754;2023-04-20T12:32:56;101115.16;;;10.14;65.25
28004;BME280;15330;51.234;6.754;2023-04-20T12:35:22;101107.13;;;10.50;65.56
28004;BME280;15330;51.234;6.754;2023-04-20T12:37:47;101108.41;;;10.38;63.87
28004;BME280;15330;51.234;6.754;2023-04-20T12:40:12;101116.59;;;10.62;62.80
28004;BME280;15330;51.234;6.754;2023-04-20T12:42:38;101094.38;;;10.44;62.09
28004;BME280;15330;51.234;6.754;2023-04-20T12:45:04;101110.94;;;10.91;61.67
28004;BME280;15330;51.234;6.754;2023-04-20T12:47:29;101117.63;;;10.43;60.87
28004;BME280;15330;51.234;6.754;2023-04-20T12:49:55;101104.25;;;11.21;59.92
28004;BME280;15330;51.234;6.754;2023-04-20T12:52:20;101105.25;;;11.20;57.66
28004;BME280;15330;51.234;6.754;2023-04-20T12:54:46;101116.81;;;10.94;57.42
28004;BME280;15330;51.234;6.754;2023-04-20T12:57:11;101107.16;;;11.01;57.34
28004;BME280;15330;51.234;6.754;2023-04-20T12:59:37;101105.19;;;11.12;56.58
28004;BME280;15330;51.234;6.754;2023-04-20T13:02:02;101104.47;;;11.01;56.17